createdAt,value
2018-09-20T00:01:24.786Z,19.10
2018-09-20T00:03:53.035Z,19.10
2018-09-20T00:06:21.306Z,19.20
2018-09-20T00:08:49.503Z,19.10
2018-09-20T00:11:17.735Z,19.10
2018-09-20T00:13:45.990Z,19.10
2018-09-20T00:16:14.210Z,19.10
2018-09-20T00:18:43.338Z,19.10
2018-09-20T00:21:11.596Z,19.00
2018-09-20T00:23:39.909Z,19.00
2018-09-20T00:26:08.238Z,19.00
2018-09-20T00:28:36.536Z,18.90
2018-09-20T00:31:04.814Z,18.90
2018-09-20T00:33:33.297Z,18.90
2018-09-20T00:36:02.477Z,18.90
2018-09-20T00:38:30.937Z,18.90
2018-09-20T00:40:59.178Z,18.90
2018-09-20T00:43:28.217Z,18.80
2018-09-20T00:45:56.483Z,18.80
2018-09-20T00:48:25.080Z,18.80
2018-09-20T00:50:53.293Z,18.70
2018-09-20T00:53:21.560Z,18.70
2018-09-20T00:55:49.872Z,18.60
2018-09-20T00:58:18.225Z,18.60
2018-09-20T01:00:46.781Z,18.60
2018-09-20T01:03:15.053Z,18.60
2018-09-20T01:05:43.851Z,18.60
2018-09-20T01:08:12.156Z,18.60
2018-09-20T01:10:41.385Z,18.60
2018-09-20T01:13:10.008Z,18.60
2018-09-20T01:15:38.292Z,18.60
2018-09-20T01:18:07.301Z,18.50
2018-09-20T01:20:35.588Z,18.50
2018-09-20T01:23:03.839Z,18.50
2018-09-20T01:25:32.772Z,18.50
2018-09-20T01:28:02.286Z,18.50
2018-09-20T01:30:30.701Z,18.50
2018-09-20T01:33:00.609Z,18.50
2018-09-20T01:35:30.883Z,18.50
2018-09-20T01:38:00.153Z,18.40
2018-09-20T01:40:30.156Z,18.40
2018-09-20T01:42:58.405Z,18.40
2018-09-20T01:45:27.160Z,18.40
2018-09-20T01:47:55.375Z,18.40
2018-09-20T01:50:23.892Z,18.30
2018-09-20T01:52:52.142Z,18.30
2018-09-20T01:55:21.095Z,18.30
2018-09-20T01:57:49.750Z,18.30
2018-09-20T02:00:18.011Z,18.30
2018-09-20T02:02:46.400Z,18.30
2018-09-20T02:05:14.608Z,18.20
2018-09-20T02:07:43.092Z,18.20
2018-09-20T02:10:12.019Z,18.20
2018-09-20T02:12:40.280Z,18.20
2018-09-20T02:15:09.616Z,18.10
2018-09-20T02:17:38.245Z,18.10
2018-09-20T02:20:06.581Z,18.00
2018-09-20T02:22:36.331Z,18.00
2018-09-20T02:25:06.178Z,18.00
2018-09-20T02:27:36.098Z,18.00
2018-09-20T02:30:05.311Z,17.90
2018-09-20T02:32:34.230Z,17.90
2018-09-20T02:35:02.839Z,17.80
2018-09-20T02:37:32.113Z,17.90
2018-09-20T02:40:00.371Z,17.90
2018-09-20T02:42:28.949Z,17.80
2018-09-20T02:44:57.662Z,17.80
2018-09-20T02:47:26.264Z,17.70
2018-09-20T02:49:55.792Z,17.70
2018-09-20T02:52:26.890Z,17.70
2018-09-20T02:54:56.581Z,17.70
2018-09-20T02:57:25.501Z,17.60
2018-09-20T02:59:53.889Z,17.60
2018-09-20T03:02:22.876Z,17.60
2018-09-20T03:04:51.160Z,17.60
2018-09-20T03:07:19.457Z,17.60
2018-09-20T03:09:48.113Z,17.60
2018-09-20T03:12:16.363Z,17.60
2018-09-20T03:14:44.618Z,17.60
2018-09-20T03:17:13.084Z,17.50
2018-09-20T03:19:42.557Z,17.50
2018-09-20T03:22:11.086Z,17.40
2018-09-20T03:24:40.442Z,17.40
2018-09-20T03:27:09.397Z,17.30
2018-09-20T03:29:38.048Z,17.30
2018-09-20T03:32:06.879Z,17.20
2018-09-20T03:34:35.199Z,17.20
2018-09-20T03:37:03.434Z,17.20
2018-09-20T03:39:31.990Z,17.20
2018-09-20T03:42:00.867Z,17.20
2018-09-20T03:44:29.629Z,17.20
2018-09-20T03:46:59.220Z,17.20
2018-09-20T03:49:34.476Z,17.10
2018-09-20T03:52:03.032Z,17.20
2018-09-20T03:54:31.898Z,17.20
2018-09-20T03:57:00.545Z,17.30
2018-09-20T03:59:29.128Z,17.20
2018-09-20T04:01:57.394Z,17.20
2018-09-20T04:04:25.740Z,17.20
2018-09-20T04:06:54.537Z,17.20
2018-09-20T04:09:22.777Z,17.10
2018-09-20T04:11:51.820Z,17.10
2018-09-20T04:14:20.045Z,17.10
2018-09-20T04:16:48.877Z,17.30
2018-09-20T04:19:17.452Z,17.10
2018-09-20T04:21:46.772Z,17.10
2018-09-20T04:24:14.949Z,17.10
2018-09-20T04:26:43.521Z,17.20
2018-09-20T04:29:11.792Z,17.10
2018-09-20T04:31:40.409Z,17.10
2018-09-20T04:34:09.277Z,17.10
2018-09-20T04:36:37.570Z,17.00
2018-09-20T04:39:08.550Z,17.00
2018-09-20T04:41:37.066Z,18.20
2018-09-20T04:44:06.611Z,16.90
2018-09-20T04:46:34.910Z,16.90
2018-09-20T04:49:03.769Z,16.90
2018-09-20T04:51:32.348Z,16.80
2018-09-20T04:54:00.599Z,16.80
2018-09-20T04:56:28.806Z,16.80
2018-09-20T04:58:57.062Z,16.70
2018-09-20T05:01:25.379Z,16.70
2018-09-20T05:03:53.892Z,16.60
2018-09-20T05:06:22.766Z,16.70
2018-09-20T05:08:51.129Z,16.60
2018-09-20T05:11:19.658Z,16.60
2018-09-20T05:13:48.602Z,16.60
2018-09-20T05:16:17.987Z,16.60
2018-09-20T05:18:46.849Z,16.60
2018-09-20T05:21:15.864Z,16.70
2018-09-20T05:23:44.643Z,16.60
2018-09-20T05:26:13.641Z,16.60
2018-09-20T05:28:41.905Z,16.90
2018-09-20T05:31:10.801Z,16.70
2018-09-20T05:33:39.027Z,16.80
2018-09-20T05:36:07.283Z,16.80
2018-09-20T05:38:35.518Z,16.80
2018-09-20T05:41:03.731Z,16.80
2018-09-20T05:43:32.108Z,16.90
2018-09-20T05:46:01.176Z,17.00
2018-09-20T05:48:29.452Z,17.00
2018-09-20T05:50:57.962Z,17.10
2018-09-20T05:53:26.557Z,17.10
2018-09-20T05:55:55.139Z,17.20
2018-09-20T05:58:23.784Z,17.30
2018-09-20T06:00:51.996Z,17.50
2018-09-20T06:03:20.282Z,17.50
2018-09-20T06:05:48.843Z,17.60
2018-09-20T06:08:17.029Z,17.60
2018-09-20T06:10:45.892Z,17.80
2018-09-20T06:13:14.423Z,17.80
2018-09-20T06:15:42.622Z,17.90
2018-09-20T06:20:39.016Z,18.10
2018-09-20T06:23:08.036Z,18.20
2018-09-20T06:25:36.379Z,18.30
2018-09-20T06:28:05.251Z,18.40
2018-09-20T06:30:33.481Z,18.60
2018-09-20T06:33:01.676Z,18.70
2018-09-20T06:35:30.424Z,18.70
2018-09-20T06:37:58.701Z,18.90
2018-09-20T06:40:26.921Z,19.00
2018-09-20T06:42:55.436Z,19.10
2018-09-20T06:45:23.674Z,19.20
2018-09-20T06:47:51.872Z,19.30
2018-09-20T06:50:20.421Z,19.40
2018-09-20T06:52:48.720Z,19.40
2018-09-20T06:55:17.025Z,19.40
2018-09-20T06:57:45.296Z,19.50
2018-09-20T07:00:13.585Z,19.60
2018-09-20T07:02:42.158Z,19.60
2018-09-20T07:05:10.439Z,19.70
2018-09-20T07:07:39.092Z,19.90
2018-09-20T07:10:07.362Z,20.00
2018-09-20T07:12:35.933Z,20.20
2018-09-20T07:15:04.305Z,20.20
2018-09-20T07:17:32.853Z,20.30
2018-09-20T07:20:01.229Z,20.30
2018-09-20T07:22:29.460Z,20.40
2018-09-20T07:24:58.296Z,20.50
2018-09-20T07:27:26.920Z,20.50
2018-09-20T07:29:55.225Z,20.60
2018-09-20T07:34:52.394Z,20.70
2018-09-20T07:37:21.288Z,20.80
2018-09-20T07:39:49.577Z,20.80
2018-09-20T07:42:17.877Z,20.90
2018-09-20T07:44:46.141Z,20.80
2018-09-20T07:47:14.364Z,20.90
2018-09-20T07:49:42.590Z,20.90
2018-09-20T07:52:10.907Z,21.00
2018-09-20T07:54:39.156Z,21.10
2018-09-20T07:57:08.114Z,21.50
2018-09-20T07:59:37.336Z,21.40
2018-09-20T08:02:06.015Z,21.40
2018-09-20T08:04:34.426Z,21.50
2018-09-20T08:07:02.940Z,21.50
2018-09-20T08:09:31.756Z,21.60
2018-09-20T08:12:00.200Z,21.70
2018-09-20T08:14:37.377Z,21.80
2018-09-20T08:17:06.788Z,22.00
2018-09-20T08:19:35.680Z,22.10
2018-09-20T08:22:04.062Z,22.20
2018-09-20T08:24:32.516Z,22.40
2018-09-20T08:27:00.679Z,22.40
2018-09-20T08:29:30.328Z,22.50
2018-09-20T08:31:58.562Z,22.60
2018-09-20T08:34:26.879Z,22.70
2018-09-20T08:36:55.564Z,22.60
2018-09-20T08:39:25.232Z,22.80
2018-09-20T08:41:53.472Z,22.90
2018-09-20T08:44:21.693Z,23.00
2018-09-20T08:46:50.360Z,23.10
2018-09-20T08:49:18.880Z,23.10
2018-09-20T08:51:47.181Z,23.20
2018-09-20T08:54:16.284Z,23.50
2018-09-20T08:56:44.717Z,23.60
2018-09-20T08:59:12.888Z,23.80
2018-09-20T09:01:41.117Z,23.90
2018-09-20T09:04:09.647Z,24.00
2018-09-20T09:06:37.824Z,24.10
2018-09-20T09:09:08.908Z,24.10
2018-09-20T09:11:37.759Z,24.20
2018-09-20T09:14:06.752Z,24.30
2018-09-20T09:16:35.256Z,24.50
2018-09-20T09:19:03.520Z,24.50
2018-09-20T09:21:32.700Z,24.60
2018-09-20T09:24:01.246Z,24.60
2018-09-20T09:26:30.961Z,24.70
2018-09-20T09:28:59.984Z,24.90
2018-09-20T09:31:29.864Z,25.00
2018-09-20T09:33:58.343Z,25.00
2018-09-20T09:36:27.071Z,25.10
2018-09-20T09:38:55.751Z,25.20
2018-09-20T09:41:24.381Z,25.30
2018-09-20T09:43:53.220Z,25.70
2018-09-20T09:46:21.599Z,25.70
2018-09-20T09:48:49.796Z,25.90
2018-09-20T09:51:18.687Z,26.00
2018-09-20T09:53:46.982Z,26.10
2018-09-20T09:56:15.341Z,26.20
2018-09-20T09:58:44.221Z,26.50
2018-09-20T10:01:14.156Z,26.50
2018-09-20T10:03:43.736Z,26.60
2018-09-20T10:06:14.226Z,26.60
2018-09-20T10:08:44.195Z,26.80
2018-09-20T10:13:44.386Z,26.80
2018-09-20T10:16:14.801Z,26.90
2018-09-20T10:18:44.950Z,27.00
2018-09-20T10:21:13.236Z,27.30
2018-09-20T10:23:43.327Z,27.30
2018-09-20T10:26:11.713Z,27.50
2018-09-20T10:28:40.847Z,27.70
2018-09-20T10:31:09.425Z,27.80
2018-09-20T10:33:37.664Z,28.00
2018-09-20T10:36:06.656Z,27.90
2018-09-20T10:38:36.428Z,27.60
2018-09-20T10:41:05.007Z,27.50
2018-09-20T10:43:33.682Z,27.60
2018-09-20T10:46:01.916Z,27.90
2018-09-20T10:48:32.481Z,28.10
2018-09-20T10:51:01.059Z,28.40
2018-09-20T10:53:29.343Z,28.50
2018-09-20T10:55:57.977Z,28.40
2018-09-20T10:58:26.907Z,28.40
2018-09-20T11:00:55.201Z,28.70
2018-09-20T11:03:23.877Z,28.70
2018-09-20T11:05:52.575Z,28.90
2018-09-20T11:08:21.506Z,28.90
2018-09-20T11:10:56.603Z,28.90
2018-09-20T11:13:25.394Z,29.00
2018-09-20T11:15:53.771Z,28.80
2018-09-20T11:18:22.199Z,28.80
2018-09-20T11:20:51.054Z,28.50
2018-09-20T11:23:19.908Z,28.50
2018-09-20T11:25:48.488Z,28.70
2018-09-20T11:28:17.066Z,28.50
2018-09-20T11:30:45.272Z,28.50
2018-09-20T11:33:13.663Z,28.60
2018-09-20T11:35:42.891Z,28.70
2018-09-20T11:38:11.104Z,29.00
2018-09-20T11:40:39.381Z,29.20
2018-09-20T11:43:07.709Z,29.50
2018-09-20T11:45:35.978Z,29.70
2018-09-20T11:48:04.588Z,29.90
2018-09-20T11:50:33.184Z,29.90
2018-09-20T11:53:02.010Z,29.90
2018-09-20T11:55:30.309Z,29.90
2018-09-20T11:57:58.766Z,30.20
2018-09-20T12:00:27.665Z,30.10
2018-09-20T12:02:55.992Z,30.00
2018-09-20T12:05:25.311Z,29.80
2018-09-20T12:07:54.022Z,29.80
2018-09-20T12:10:23.156Z,29.80
2018-09-20T12:12:51.470Z,29.60
2018-09-20T12:15:20.174Z,29.30
2018-09-20T12:17:49.743Z,29.30
2018-09-20T12:20:18.122Z,29.30
2018-09-20T12:22:46.504Z,29.40
2018-09-20T12:25:15.261Z,29.20
2018-09-20T12:27:44.857Z,28.70
2018-09-20T12:30:13.219Z,28.70
2018-09-20T12:32:41.483Z,28.80
2018-09-20T12:35:10.023Z,29.90
2018-09-20T12:37:38.676Z,29.10
2018-09-20T12:40:08.476Z,29.40
2018-09-20T12:42:36.777Z,29.90
2018-09-20T12:45:05.025Z,30.30
2018-09-20T12:47:34.001Z,30.70
2018-09-20T12:50:02.361Z,30.90
2018-09-20T12:52:30.944Z,30.70
2018-09-20T12:55:00.329Z,30.50
2018-09-20T12:57:28.523Z,30.30
2018-09-20T12:59:56.965Z,29.70
2018-09-20T13:02:25.543Z,29.80
2018-09-20T13:04:53.965Z,29.80
2018-09-20T13:07:22.272Z,29.80
2018-09-20T13:09:51.606Z,29.90
2018-09-20T13:12:19.963Z,30.10
2018-09-20T13:14:48.394Z,30.30
2018-09-20T13:17:17.113Z,30.10
2018-09-20T13:19:45.392Z,30.10
2018-09-20T13:22:13.761Z,30.00
2018-09-20T13:24:43.458Z,30.10
2018-09-20T13:27:12.174Z,30.50
2018-09-20T13:29:40.420Z,30.50
2018-09-20T13:32:09.273Z,30.80
2018-09-20T13:34:37.603Z,30.90
2018-09-20T13:37:05.839Z,32.00
2018-09-20T13:39:34.045Z,32.90
2018-09-20T13:42:02.593Z,32.90
2018-09-20T13:44:31.087Z,34.40
2018-09-20T13:47:00.316Z,36.20
2018-09-20T13:49:29.528Z,34.70
2018-09-20T13:51:57.806Z,34.60
2018-09-20T13:54:26.492Z,34.20
2018-09-20T13:56:54.798Z,33.70
2018-09-20T13:59:23.112Z,33.80
2018-09-20T14:01:51.356Z,34.00
2018-09-20T14:04:19.946Z,35.60
2018-09-20T14:06:48.618Z,35.60
2018-09-20T14:09:17.224Z,36.30
2018-09-20T14:11:46.122Z,36.20
2018-09-20T14:14:15.164Z,36.90
2018-09-20T14:16:44.065Z,36.60
2018-09-20T14:19:12.681Z,36.50
2018-09-20T14:21:41.097Z,36.10
2018-09-20T14:24:09.508Z,35.80
2018-09-20T14:26:38.491Z,35.90
2018-09-20T14:29:06.884Z,36.00
2018-09-20T14:31:35.147Z,36.30
2018-09-20T14:34:03.613Z,36.00
2018-09-20T14:36:32.115Z,36.10
2018-09-20T14:39:00.880Z,36.70
2018-09-20T14:41:29.238Z,36.50
2018-09-20T14:43:58.086Z,36.60
2018-09-20T14:46:26.685Z,37.50
2018-09-20T14:48:55.575Z,37.90
2018-09-20T14:51:23.861Z,38.10
2018-09-20T14:53:52.604Z,37.60
2018-09-20T14:56:21.436Z,37.50
2018-09-20T14:58:50.323Z,37.90
2018-09-20T15:01:18.766Z,37.40
2018-09-20T15:03:47.483Z,37.40
2018-09-20T15:06:15.761Z,37.60
2018-09-20T15:08:44.061Z,37.10
2018-09-20T15:11:12.423Z,37.20
2018-09-20T15:13:41.551Z,37.00
2018-09-20T15:16:10.093Z,37.20
2018-09-20T15:18:38.410Z,37.40
2018-09-20T15:21:07.094Z,37.30
2018-09-20T15:23:35.328Z,37.10
2018-09-20T15:28:31.953Z,36.30
2018-09-20T15:31:00.270Z,35.80
2018-09-20T15:33:28.474Z,36.20
2018-09-20T15:35:57.305Z,35.90
2018-09-20T15:38:25.618Z,36.40
2018-09-20T15:40:54.854Z,36.20
2018-09-20T15:43:23.164Z,35.90
2018-09-20T15:45:51.576Z,35.70
2018-09-20T15:48:20.041Z,35.80
2018-09-20T15:50:48.285Z,35.60
2018-09-20T15:53:16.872Z,34.80
2018-09-20T15:55:46.133Z,34.60
2018-09-20T15:58:15.695Z,34.80
2018-09-20T16:00:43.973Z,34.80
2018-09-20T16:03:12.743Z,34.60
2018-09-20T16:05:41.006Z,34.60
2018-09-20T16:08:09.455Z,34.60
2018-09-20T16:10:38.010Z,34.30
2018-09-20T16:15:34.863Z,34.00
2018-09-20T16:20:32.690Z,34.10
2018-09-20T16:23:00.924Z,33.80
2018-09-20T16:25:29.430Z,33.60
2018-09-20T16:28:15.116Z,33.40
2018-09-20T16:30:59.372Z,33.40
2018-09-20T16:36:38.788Z,32.80
2018-09-20T16:39:15.599Z,32.80
2018-09-20T16:41:46.950Z,32.60
2018-09-20T16:44:15.129Z,32.50
2018-09-20T16:46:43.709Z,31.90
2018-09-20T16:49:12.229Z,31.10
2018-09-20T16:51:40.643Z,30.40
2018-09-20T16:54:08.974Z,29.30
2018-09-20T16:56:37.212Z,29.40
2018-09-20T16:59:05.749Z,28.70
2018-09-20T17:01:34.306Z,28.70
2018-09-20T17:04:03.255Z,28.20
2018-09-20T17:06:32.304Z,28.10
2018-09-20T17:09:02.887Z,28.00
2018-09-20T17:11:31.477Z,27.60
2018-09-20T17:13:59.655Z,27.60
2018-09-20T17:16:27.875Z,27.40
2018-09-20T17:18:56.295Z,27.30
2018-09-20T17:21:24.496Z,27.10
2018-09-20T17:23:53.365Z,27.10
2018-09-20T17:26:21.529Z,27.00
2018-09-20T17:28:49.676Z,26.70
2018-09-20T17:31:18.107Z,26.60
2018-09-20T17:33:46.320Z,26.60
2018-09-20T17:36:15.529Z,26.40
2018-09-20T17:38:45.167Z,26.40
2018-09-20T17:43:51.309Z,26.10
2018-09-20T17:46:20.194Z,25.90
2018-09-20T17:48:49.200Z,25.90
2018-09-20T17:53:47.045Z,25.70
2018-09-20T17:56:16.668Z,25.60
2018-09-20T17:58:46.393Z,25.50
2018-09-20T18:01:14.856Z,25.50
2018-09-20T18:03:43.601Z,25.50
2018-09-20T18:06:13.372Z,25.40
2018-09-20T18:08:41.828Z,25.30
2018-09-20T18:11:10.896Z,25.20
2018-09-20T18:13:39.200Z,25.00
2018-09-20T18:16:07.873Z,24.80
2018-09-20T18:18:36.025Z,24.80
2018-09-20T18:21:04.543Z,24.70
2018-09-20T18:23:33.420Z,24.60
2018-09-20T18:26:02.340Z,24.40
2018-09-20T18:28:30.547Z,24.40
2018-09-20T18:30:59.473Z,24.20
2018-09-20T18:33:27.651Z,24.20
2018-09-20T18:35:56.684Z,24.10
2018-09-20T18:38:24.971Z,23.90
2018-09-20T18:40:53.448Z,23.90
2018-09-20T18:43:21.711Z,23.80
2018-09-20T18:45:49.922Z,23.80
2018-09-20T18:48:18.469Z,23.70
2018-09-20T18:50:46.703Z,23.60
2018-09-20T18:53:15.172Z,23.60
2018-09-20T18:55:43.436Z,23.50
2018-09-20T18:58:12.255Z,23.50
2018-09-20T19:00:41.016Z,23.40
2018-09-20T19:03:09.240Z,23.40
2018-09-20T19:05:37.420Z,23.30
2018-09-20T19:08:06.174Z,23.20
2018-09-20T19:10:34.640Z,23.20
2018-09-20T19:13:03.149Z,23.10
2018-09-20T19:15:31.362Z,23.10
2018-09-20T19:17:59.637Z,23.00
2018-09-20T19:20:27.826Z,22.90
2018-09-20T19:22:56.381Z,22.90
2018-09-20T19:25:24.686Z,22.80
2018-09-20T19:27:53.579Z,22.80
2018-09-20T19:30:22.220Z,23.00
2018-09-20T19:32:50.728Z,22.70
2018-09-20T19:35:19.233Z,22.70
2018-09-20T19:37:47.396Z,22.60
2018-09-20T19:40:15.626Z,22.60
2018-09-20T19:42:44.204Z,22.50
2018-09-20T19:45:12.404Z,22.50
2018-09-20T19:47:40.578Z,22.40
2018-09-20T19:50:09.111Z,22.40
2018-09-20T19:52:37.652Z,22.30
2018-09-20T19:55:06.256Z,22.30
2018-09-20T19:57:34.321Z,22.30
2018-09-20T20:00:02.508Z,22.20
2018-09-20T20:02:30.700Z,22.20
2018-09-20T20:04:58.925Z,22.20
2018-09-20T20:07:27.445Z,22.10
2018-09-20T20:09:56.568Z,22.00
2018-09-20T20:12:24.753Z,22.00
2018-09-20T20:14:53.096Z,22.00
2018-09-20T20:17:21.356Z,22.00
2018-09-20T20:19:49.858Z,21.90
2018-09-20T20:22:18.064Z,21.90
2018-09-20T20:24:46.251Z,21.80
2018-09-20T20:27:14.689Z,21.70
2018-09-20T20:29:42.863Z,21.70
2018-09-20T20:32:11.176Z,21.70
2018-09-20T20:34:39.644Z,21.70
2018-09-20T20:37:08.165Z,21.60
2018-09-20T20:39:36.741Z,21.60
2018-09-20T20:42:04.972Z,21.60
2018-09-20T20:44:33.553Z,21.60
2018-09-20T20:47:01.786Z,21.60
2018-09-20T20:49:30.069Z,21.50
2018-09-20T20:51:58.326Z,22.00
2018-09-20T20:54:26.501Z,21.50
2018-09-20T20:56:54.926Z,21.50
2018-09-20T20:59:23.146Z,21.50
2018-09-20T21:01:51.690Z,21.30
2018-09-20T21:04:20.564Z,21.40
2018-09-20T21:06:49.352Z,21.40
2018-09-20T21:09:17.558Z,21.40
2018-09-20T21:11:46.580Z,21.30
2018-09-20T21:14:14.797Z,21.30
2018-09-20T21:16:43.032Z,21.20
2018-09-20T21:19:11.808Z,21.20
2018-09-20T21:21:40.238Z,21.20
2018-09-20T21:24:08.765Z,21.20
2018-09-20T21:26:37.351Z,21.20
2018-09-20T21:29:06.131Z,21.20
2018-09-20T21:31:34.585Z,21.10
2018-09-20T21:34:02.784Z,21.10
2018-09-20T21:36:31.288Z,21.00
2018-09-20T21:39:00.875Z,20.90
2018-09-20T21:41:29.112Z,20.90
2018-09-20T21:43:57.404Z,20.80
2018-09-20T21:46:26.030Z,20.80
2018-09-20T21:48:54.243Z,20.70
2018-09-20T21:51:22.744Z,20.60
2018-09-20T21:53:50.941Z,20.50
2018-09-20T21:56:19.709Z,20.50
2018-09-20T21:58:48.411Z,20.40
2018-09-20T22:01:16.601Z,20.40
2018-09-20T22:03:45.075Z,20.30
2018-09-20T22:06:13.947Z,20.30
2018-09-20T22:08:42.150Z,20.30
2018-09-20T22:11:10.999Z,20.30
2018-09-20T22:13:39.193Z,20.30
2018-09-20T22:18:36.397Z,20.20
2018-09-20T22:21:05.095Z,20.20
2018-09-20T22:23:33.344Z,20.20
2018-09-20T22:26:01.876Z,20.20
2018-09-20T22:28:30.094Z,20.20
2018-09-20T22:30:58.674Z,20.10
2018-09-20T22:33:27.926Z,20.10
2018-09-20T22:35:56.219Z,20.00
2018-09-20T22:38:24.790Z,20.00
2018-09-20T22:40:53.098Z,20.00
2018-09-20T22:43:21.324Z,20.00
2018-09-20T22:45:50.196Z,19.90
2018-09-20T22:48:18.431Z,19.90
2018-09-20T22:50:46.785Z,19.90
2018-09-20T22:53:15.388Z,19.90
2018-09-20T22:55:44.253Z,19.80
2018-09-20T22:58:13.081Z,19.80
2018-09-20T23:00:41.446Z,19.70
2018-09-20T23:03:09.977Z,19.70
2018-09-20T23:05:38.242Z,19.60
2018-09-20T23:08:06.602Z,19.70
2018-09-20T23:10:34.865Z,19.60
2018-09-20T23:13:03.386Z,19.50
2018-09-20T23:15:38.624Z,19.50
2018-09-20T23:18:06.861Z,19.50
2018-09-20T23:20:35.132Z,19.50
2018-09-20T23:23:03.876Z,19.50
2018-09-20T23:25:32.468Z,19.50
2018-09-20T23:28:00.688Z,19.40
2018-09-20T23:30:28.897Z,19.30
2018-09-20T23:32:57.100Z,19.20
2018-09-20T23:35:25.364Z,19.20
2018-09-20T23:37:53.757Z,19.20
2018-09-20T23:40:22.285Z,19.20
2018-09-20T23:42:50.760Z,19.20
2018-09-20T23:45:18.992Z,19.40
2018-09-20T23:47:47.483Z,19.20
2018-09-20T23:50:15.775Z,19.20
2018-09-20T23:52:44.356Z,19.10
2018-09-20T23:55:12.543Z,18.90
2018-09-20T23:57:40.810Z,19.10
